createdAt,value
2022-08-21T00:00:17.464Z,73.3
2022-08-21T00:05:17.339Z,73.2
2022-08-21T00:10:17.309Z,73.0
2022-08-21T00:15:17.503Z,72.9
2022-08-21T00:20:17.305Z,72.9
2022-08-21T00:25:17.414Z,73.0
2022-08-21T00:30:22.935Z,73.0
2022-08-21T00:35:17.410Z,72.9
2022-08-21T00:40:17.450Z,72.7
2022-08-21T00:45:17.492Z,72.4
2022-08-21T00:50:21.809Z,72.4
2022-08-21T00:55:17.710Z,72.5
2022-08-21T01:00:17.633Z,72.5
2022-08-21T01:05:17.578Z,72.4
2022-08-21T01:10:24.181Z,72.2
2022-08-21T01:15:17.694Z,72.2
2022-08-21T01:20:17.666Z,72.1
2022-08-21T01:25:17.504Z,72.1
2022-08-21T01:30:17.576Z,71.9
2022-08-21T01:35:17.523Z,71.8
2022-08-21T01:40:17.476Z,71.6
2022-08-21T01:45:17.563Z,71.6
2022-08-21T01:50:17.742Z,71.5
2022-08-21T01:55:17.687Z,71.5
2022-08-21T02:00:17.507Z,71.4
2022-08-21T02:05:17.741Z,71.4
2022-08-21T02:10:17.970Z,71.3
2022-08-21T02:15:17.757Z,71.4
2022-08-21T02:20:17.596Z,71.4
2022-08-21T02:25:17.569Z,71.4
2022-08-21T02:30:17.918Z,71.5
2022-08-21T02:35:17.641Z,71.6
2022-08-21T02:40:17.665Z,71.5
2022-08-21T02:45:17.747Z,71.5
2022-08-21T02:50:17.548Z,71.4
2022-08-21T02:55:17.590Z,71.4
2022-08-21T03:00:17.679Z,71.5
2022-08-21T03:05:17.887Z,71.5
2022-08-21T03:10:17.876Z,71.5
2022-08-21T03:15:17.799Z,71.4
2022-08-21T03:20:17.751Z,71.3
2022-08-21T03:25:17.770Z,71.3
2022-08-21T03:30:17.823Z,71.3
2022-08-21T03:35:17.991Z,71.3
2022-08-21T03:40:17.931Z,71.1
2022-08-21T03:45:18.833Z,71.2
2022-08-21T03:50:17.782Z,71.2
2022-08-21T03:55:17.752Z,71.1
2022-08-21T04:00:18.545Z,71.1
2022-08-21T04:05:16.922Z,71.0
2022-08-21T04:10:16.921Z,71.0
2022-08-21T04:15:17.057Z,71.0
2022-08-21T04:20:16.768Z,70.8
2022-08-21T04:25:16.905Z,70.7
2022-08-21T04:30:17.085Z,70.7
2022-08-21T04:35:16.972Z,70.6
2022-08-21T04:40:17.229Z,70.5
2022-08-21T04:45:17.062Z,70.5
2022-08-21T04:50:16.779Z,70.5
2022-08-21T04:55:16.823Z,70.5
2022-08-21T05:00:17.026Z,70.6
2022-08-21T05:05:16.918Z,70.5
2022-08-21T05:10:16.853Z,70.4
2022-08-21T05:15:17.355Z,70.4
2022-08-21T05:20:16.871Z,70.4
2022-08-21T05:25:17.111Z,70.3
2022-08-21T05:30:17.156Z,70.3
2022-08-21T05:35:16.997Z,70.2
2022-08-21T05:40:22.609Z,70.2
2022-08-21T05:45:17.069Z,70.1
2022-08-21T05:50:17.131Z,70.1
2022-08-21T05:55:17.100Z,70.1
2022-08-21T06:00:17.088Z,70.1
2022-08-21T06:05:17.147Z,70.1
2022-08-21T06:10:17.020Z,70.1
2022-08-21T06:15:17.205Z,70.2
2022-08-21T06:20:17.045Z,70.1
2022-08-21T06:25:17.283Z,70.1
2022-08-21T06:30:17.114Z,70.1
2022-08-21T06:35:17.294Z,70.1
2022-08-21T06:40:17.116Z,70.0
2022-08-21T06:45:17.290Z,69.9
2022-08-21T06:50:17.323Z,69.9
2022-08-21T06:55:22.359Z,69.8
2022-08-21T07:00:17.296Z,69.8
2022-08-21T07:05:18.435Z,69.9
2022-08-21T07:10:21.826Z,69.9
2022-08-21T07:15:17.301Z,69.9
2022-08-21T07:20:17.225Z,69.9
2022-08-21T07:25:17.250Z,69.9
2022-08-21T07:30:17.352Z,69.9
2022-08-21T07:35:17.438Z,70.0
2022-08-21T07:40:19.009Z,70.0
2022-08-21T07:45:17.749Z,70.1
2022-08-21T07:50:17.114Z,70.1
2022-08-21T07:55:17.264Z,70.1
2022-08-21T08:00:17.481Z,70.1
2022-08-21T08:05:17.236Z,70.0
2022-08-21T08:10:17.358Z,70.0
2022-08-21T08:15:17.399Z,69.9
2022-08-21T08:20:17.434Z,69.9
2022-08-21T08:25:17.321Z,69.8
2022-08-21T08:30:17.472Z,69.7
2022-08-21T08:35:17.362Z,69.6
2022-08-21T08:40:17.559Z,69.6
2022-08-21T08:45:17.560Z,69.7
2022-08-21T08:50:18.240Z,69.7
2022-08-21T08:55:18.653Z,69.7
2022-08-21T09:00:17.489Z,69.7
2022-08-21T09:05:17.439Z,69.7
2022-08-21T09:10:17.705Z,69.7
2022-08-21T09:15:17.642Z,69.7
2022-08-21T09:20:17.391Z,69.6
2022-08-21T09:25:17.479Z,69.6
2022-08-21T09:30:17.470Z,69.6
2022-08-21T09:35:17.494Z,69.6
2022-08-21T09:40:17.548Z,69.6
2022-08-21T09:45:17.550Z,69.6
2022-08-21T09:50:17.593Z,69.5
2022-08-21T09:55:17.528Z,69.4
2022-08-21T10:00:17.570Z,69.5
2022-08-21T10:05:17.823Z,69.4
2022-08-21T10:10:17.465Z,69.4
2022-08-21T10:15:17.607Z,69.4
2022-08-21T10:20:17.650Z,69.4
2022-08-21T10:25:17.742Z,69.4
2022-08-21T10:30:17.564Z,69.4
2022-08-21T10:35:17.599Z,69.5
2022-08-21T10:40:17.608Z,69.6
2022-08-21T10:45:17.734Z,69.6
2022-08-21T10:50:17.616Z,69.6
2022-08-21T10:55:17.620Z,69.5
2022-08-21T11:00:18.175Z,69.5
2022-08-21T11:05:17.697Z,69.6
2022-08-21T11:10:17.580Z,69.5
2022-08-21T11:15:28.955Z,69.4
2022-08-21T11:20:17.675Z,69.4
2022-08-21T11:25:17.909Z,69.4
2022-08-21T11:30:17.607Z,69.4
2022-08-21T11:35:17.934Z,69.4
2022-08-21T11:40:17.759Z,69.5
2022-08-21T11:45:17.705Z,69.5
2022-08-21T11:50:34.536Z,69.5
2022-08-21T11:55:17.776Z,69.5
2022-08-21T12:00:17.727Z,69.5
2022-08-21T12:05:17.813Z,69.5
2022-08-21T12:10:17.855Z,69.7
2022-08-21T12:15:18.055Z,69.9
2022-08-21T12:20:17.747Z,70.2
2022-08-21T12:25:21.494Z,70.2
2022-08-21T12:30:17.910Z,70.4
2022-08-21T12:35:25.536Z,70.3
2022-08-21T12:40:18.067Z,70.3
2022-08-21T12:45:18.094Z,70.1
2022-08-21T12:50:17.908Z,70.0
2022-08-21T12:55:17.828Z,69.9
2022-08-21T13:00:17.885Z,69.9
2022-08-21T13:05:17.881Z,70.0
2022-08-21T13:10:17.810Z,69.9
2022-08-21T13:15:18.094Z,69.9
2022-08-21T13:20:18.001Z,69.8
2022-08-21T13:25:18.097Z,69.7
2022-08-21T13:30:18.160Z,69.8
2022-08-21T13:35:18.012Z,69.9
2022-08-21T13:40:17.955Z,70.0
2022-08-21T13:45:18.053Z,70.0
2022-08-21T13:50:18.224Z,70.2
2022-08-21T13:55:18.350Z,70.1
2022-08-21T14:00:17.999Z,70.1
2022-08-21T14:05:17.987Z,70.2
2022-08-21T14:10:18.016Z,70.2
2022-08-21T14:15:18.125Z,70.3
2022-08-21T14:20:17.977Z,70.3
2022-08-21T14:25:17.994Z,70.2
2022-08-21T14:30:18.701Z,70.3
2022-08-21T14:35:18.228Z,70.3
2022-08-21T14:40:18.204Z,70.3
2022-08-21T14:45:18.209Z,70.2
2022-08-21T14:50:18.034Z,70.1
2022-08-21T14:55:18.060Z,70.0
2022-08-21T15:00:18.445Z,69.7
2022-08-21T15:05:18.547Z,69.4
2022-08-21T15:10:18.050Z,69.1
2022-08-21T15:15:18.376Z,69.1
2022-08-21T15:20:18.065Z,69.1
2022-08-21T15:25:18.239Z,69.3
2022-08-21T15:30:18.131Z,69.3
2022-08-21T15:35:18.228Z,69.4
2022-08-21T15:40:18.351Z,69.4
2022-08-21T15:45:16.332Z,69.7
2022-08-21T15:50:16.146Z,70.0
2022-08-21T15:55:16.254Z,70.3
2022-08-21T16:00:16.156Z,70.7
2022-08-21T16:05:16.286Z,70.9
2022-08-21T16:10:16.272Z,71.0
2022-08-21T16:15:20.339Z,71.3
2022-08-21T16:20:16.240Z,71.4
2022-08-21T16:25:16.318Z,71.3
2022-08-21T16:30:16.415Z,71.2
2022-08-21T16:35:16.319Z,71.6
2022-08-21T16:40:16.422Z,71.7
2022-08-21T16:45:16.714Z,71.9
2022-08-21T16:50:16.640Z,71.9
2022-08-21T16:55:16.584Z,71.3
2022-08-21T17:00:16.399Z,70.8
2022-08-21T17:05:16.412Z,70.7
2022-08-21T17:10:16.331Z,70.6
2022-08-21T17:15:21.534Z,70.4
2022-08-21T17:20:16.454Z,70.5
2022-08-21T17:25:16.641Z,70.5
2022-08-21T17:30:16.514Z,70.5
2022-08-21T17:35:16.664Z,70.5
2022-08-21T17:40:16.651Z,70.7
2022-08-21T17:45:16.605Z,71.2
2022-08-21T17:50:16.742Z,71.4
2022-08-21T17:55:16.442Z,71.3
2022-08-21T18:00:16.637Z,71.5
2022-08-21T18:05:16.675Z,71.5
2022-08-21T18:10:16.357Z,71.6
2022-08-21T18:15:16.698Z,71.5
2022-08-21T18:20:16.608Z,71.7
2022-08-21T18:25:16.611Z,71.7
2022-08-21T18:30:19.493Z,71.8
2022-08-21T18:35:16.740Z,71.9
2022-08-21T18:40:16.605Z,72.0
2022-08-21T18:45:16.859Z,71.8
2022-08-21T18:50:16.514Z,71.8
2022-08-21T18:55:17.058Z,71.7
2022-08-21T19:00:16.616Z,71.6
2022-08-21T19:05:17.416Z,71.7
2022-08-21T19:10:27.809Z,71.6
2022-08-21T19:15:17.027Z,71.5
2022-08-21T19:21:22.016Z,71.5
2022-08-21T19:25:16.617Z,71.6
2022-08-21T19:30:16.726Z,71.7
2022-08-21T19:35:16.671Z,71.8
2022-08-21T19:40:16.963Z,71.8
2022-08-21T19:45:16.966Z,72.0
2022-08-21T19:51:22.131Z,72.1
2022-08-21T19:55:16.668Z,72.3
2022-08-21T20:00:17.104Z,72.3
2022-08-21T20:05:18.183Z,72.3
2022-08-21T20:10:16.697Z,72.2
2022-08-21T20:15:16.761Z,72.0
2022-08-21T20:20:16.776Z,71.9
2022-08-21T20:25:16.776Z,71.8
2022-08-21T20:30:22.656Z,71.8
2022-08-21T20:35:16.817Z,71.9
2022-08-21T20:40:20.841Z,71.8
2022-08-21T20:45:16.813Z,72.0
2022-08-21T20:50:16.970Z,72.0
2022-08-21T20:55:17.030Z,71.9
2022-08-21T21:00:16.816Z,72.0
2022-08-21T21:05:16.905Z,72.0
2022-08-21T21:10:16.887Z,71.8
2022-08-21T21:16:22.514Z,71.6
2022-08-21T21:20:16.792Z,71.7
2022-08-21T21:25:17.101Z,71.9
2022-08-21T21:30:17.074Z,72.0
2022-08-21T21:35:16.904Z,72.0
2022-08-21T21:40:16.803Z,72.0
2022-08-21T21:45:17.002Z,71.9
2022-08-21T21:50:18.996Z,71.9
2022-08-21T21:56:22.417Z,71.8
2022-08-21T22:00:17.097Z,71.8
2022-08-21T22:05:17.120Z,71.6
2022-08-21T22:10:19.864Z,71.7
2022-08-21T22:15:27.370Z,71.7
2022-08-21T22:20:16.977Z,71.8
2022-08-21T22:25:16.925Z,71.7
2022-08-21T22:30:17.722Z,71.7
2022-08-21T22:35:17.144Z,71.8
2022-08-21T22:40:17.245Z,71.7
2022-08-21T22:45:17.023Z,71.6
2022-08-21T22:50:16.965Z,71.7
2022-08-21T22:55:17.169Z,71.6
2022-08-21T23:00:17.032Z,71.5
2022-08-21T23:05:17.130Z,71.4
2022-08-21T23:10:17.085Z,71.4
2022-08-21T23:15:18.071Z,71.3
2022-08-21T23:20:17.051Z,71.1
2022-08-21T23:25:17.236Z,71.0
2022-08-21T23:30:18.614Z,70.9
2022-08-21T23:35:17.938Z,70.9
2022-08-21T23:40:17.109Z,70.9
2022-08-21T23:45:17.996Z,70.8
2022-08-21T23:50:17.273Z,70.8
2022-08-21T23:55:17.363Z,70.8
